sensor_id;sensor_type;location;lat;lon;timestamp;temperature;humidity
17795;DHT22;9021;50.882;4.326;2023-06-22T00:01:08;23.00;99.90
17795;DHT22;9021;50.882;4.326;2023-06-22T00:03:34;22.90;99.90
17795;DHT22;9021;50.882;4.326;2023-06-22T00:05:59;22.90;99.90
17795;DHT22;9021;50.882;4.326;2023-06-22T00:08:25;22.90;99.90
17795;DHT22;9021;50.882;4.326;2023-06-22T00:10:50;22.90;99.90
17795;DHT22;9021;50.882;4.326;2023-06-22T00:13:16;23.00;99.90
17795;DHT22;9021;50.882;4.326;2023-06-22T00:15:42;23.10;99.90
17795;DHT22;9021;50.882;4.326;2023-06-22T00:18:08;23.10;99.90
17795;DHT22;9021;50.882;4.326;2023-06-22T00:20:34;23.10;99.90
17795;DHT22;9021;50.882;4.326;2023-06-22T00:23:03;22.80;99.90
17795;DHT22;9021;50.882;4.326;2023-06-22T00:25:42;22.80;99.90
17795;DHT22;9021;50.882;4.326;2023-06-22T00:28:08;22.80;99.90
17795;DHT22;9021;50.882;4.326;2023-06-22T00:30:34;22.70;99.90
17795;DHT22;9021;50.882;4.326;2023-06-22T00:33:00;22.50;99.90
17795;DHT22;9021;50.882;4.326;2023-06-22T00:35:26;22.50;99.90
17795;DHT22;9021;50.882;4.326;2023-06-22T00:37:55;22.70;99.90
17795;DHT22;9021;50.882;4.326;2023-06-22T00:40:26;22.80;99.90
17795;DHT22;9021;50.882;4.326;2023-06-22T00:42:52;22.80;99.90
17795;DHT22;9021;50.882;4.326;2023-06-22T00:45:17;22.90;99.90
17795;DHT22;9021;50.882;4.326;2023-06-22T00:47:43;22.90;99.90
17795;DHT22;9021;50.882;4.326;2023-06-22T00:50:09;22.90;99.90
17795;DHT22;9021;50.882;4.326;2023-06-22T00:52:38;22.80;99.90
17795;DHT22;9021;50.882;4.326;2023-06-22T00:55:08;22.70;99.90
17795;DHT22;9021;50.882;4.326;2023-06-22T00:57:34;22.70;99.90
17795;DHT22;9021;50.882;4.326;2023-06-22T01:00:02;22.80;99.90
17795;DHT22;9021;50.882;4.326;2023-06-22T01:02:31;22.80;99.90
17795;DHT22;9021;50.882;4.326;2023-06-22T01:04:57;22.80;99.90
17795;DHT22;9021;50.882;4.326;2023-06-22T01:07:33;22.70;99.90
17795;DHT22;9021;50.882;4.326;2023-06-22T01:12:39;22.80;99.90
17795;DHT22;9021;50.882;4.326;2023-06-22T01:15:09;22.80;99.90
17795;DHT22;9021;50.882;4.326;2023-06-22T01:17:36;22.70;99.90
17795;DHT22;9021;50.882;4.326;2023-06-22T01:20:05;22.60;99.90
17795;DHT22;9021;50.882;4.326;2023-06-22T01:22:33;22.60;99.90
17795;DHT22;9021;50.882;4.326;2023-06-22T01:30:02;22.60;99.90
17795;DHT22;9021;50.882;4.326;2023-06-22T01:32:30;22.60;99.90
17795;DHT22;9021;50.882;4.326;2023-06-22T01:34:58;22.60;99.90
17795;DHT22;9021;50.882;4.326;2023-06-22T01:37:25;22.60;99.90
17795;DHT22;9021;50.882;4.326;2023-06-22T01:39:51;22.60;99.90
17795;DHT22;9021;50.882;4.326;2023-06-22T01:42:16;22.60;99.90
17795;DHT22;9021;50.882;4.326;2023-06-22T01:44:42;22.70;99.90
17795;DHT22;9021;50.882;4.326;2023-06-22T01:47:07;22.60;99.90
17795;DHT22;9021;50.882;4.326;2023-06-22T01:49:33;22.40;99.90
17795;DHT22;9021;50.882;4.326;2023-06-22T01:51:58;22.40;99.90
17795;DHT22;9021;50.882;4.326;2023-06-22T01:54:24;22.50;99.90
17795;DHT22;9021;50.882;4.326;2023-06-22T01:56:49;22.50;99.90
17795;DHT22;9021;50.882;4.326;2023-06-22T01:59:22;22.60;99.90
17795;DHT22;9021;50.882;4.326;2023-06-22T02:01:55;22.40;99.90
17795;DHT22;9021;50.882;4.326;2023-06-22T02:04:32;22.20;99.90
17795;DHT22;9021;50.882;4.326;2023-06-22T02:07:00;22.10;99.90
17795;DHT22;9021;50.882;4.326;2023-06-22T02:09:27;22.20;99.90
17795;DHT22;9021;50.882;4.326;2023-06-22T02:11:54;22.30;99.90
17795;DHT22;9021;50.882;4.326;2023-06-22T02:14:21;22.30;99.90
17795;DHT22;9021;50.882;4.326;2023-06-22T02:16:47;22.20;99.90
17795;DHT22;9021;50.882;4.326;2023-06-22T02:19:12;22.20;99.90
17795;DHT22;9021;50.882;4.326;2023-06-22T02:21:40;22.20;99.90
17795;DHT22;9021;50.882;4.326;2023-06-22T02:24:06;22.30;99.90
17795;DHT22;9021;50.882;4.326;2023-06-22T02:26:32;22.20;99.90
17795;DHT22;9021;50.882;4.326;2023-06-22T02:28:58;22.20;99.90
17795;DHT22;9021;50.882;4.326;2023-06-22T02:31:23;22.10;99.90
17795;DHT22;9021;50.882;4.326;2023-06-22T02:33:56;22.10;99.90
17795;DHT22;9021;50.882;4.326;2023-06-22T02:36:23;21.90;99.90
17795;DHT22;9021;50.882;4.326;2023-06-22T02:38:49;21.80;99.90
17795;DHT22;9021;50.882;4.326;2023-06-22T02:41:15;21.80;99.90
17795;DHT22;9021;50.882;4.326;2023-06-22T02:43:46;21.80;99.90
17795;DHT22;9021;50.882;4.326;2023-06-22T02:46:12;21.80;99.90
17795;DHT22;9021;50.882;4.326;2023-06-22T02:48:41;21.60;99.90
17795;DHT22;9021;50.882;4.326;2023-06-22T02:51:06;21.60;99.90
17795;DHT22;9021;50.882;4.326;2023-06-22T02:53:32;21.70;99.90
17795;DHT22;9021;50.882;4.326;2023-06-22T02:55:58;21.80;99.90
17795;DHT22;9021;50.882;4.326;2023-06-22T02:58:23;21.80;99.90
17795;DHT22;9021;50.882;4.326;2023-06-22T03:00:49;21.90;99.90
17795;DHT22;9021;50.882;4.326;2023-06-22T03:03:18;21.90;99.90
17795;DHT22;9021;50.882;4.326;2023-06-22T03:05:44;22.10;99.90
17795;DHT22;9021;50.882;4.326;2023-06-22T03:08:09;21.90;99.90
17795;DHT22;9021;50.882;4.326;2023-06-22T03:10:35;21.90;99.90
17795;DHT22;9021;50.882;4.326;2023-06-22T03:13:00;21.80;99.90
17795;DHT22;9021;50.882;4.326;2023-06-22T03:15:26;21.80;99.90
17795;DHT22;9021;50.882;4.326;2023-06-22T03:17:54;21.80;99.90
17795;DHT22;9021;50.882;4.326;2023-06-22T03:20:20;21.70;99.90
17795;DHT22;9021;50.882;4.326;2023-06-22T03:22:45;21.70;99.90
17795;DHT22;9021;50.882;4.326;2023-06-22T03:25:11;21.70;99.90
17795;DHT22;9021;50.882;4.326;2023-06-22T03:27:41;21.80;99.90
17795;DHT22;9021;50.882;4.326;2023-06-22T03:30:08;21.80;99.90
17795;DHT22;9021;50.882;4.326;2023-06-22T03:32:33;21.90;99.90
17795;DHT22;9021;50.882;4.326;2023-06-22T03:34:59;21.90;99.90
17795;DHT22;9021;50.882;4.326;2023-06-22T03:37:25;21.80;99.90
17795;DHT22;9021;50.882;4.326;2023-06-22T03:39:51;21.90;99.90
17795;DHT22;9021;50.882;4.326;2023-06-22T03:42:16;21.80;99.90
17795;DHT22;9021;50.882;4.326;2023-06-22T03:44:42;21.70;99.90
17795;DHT22;9021;50.882;4.326;2023-06-22T03:47:07;21.80;99.90
17795;DHT22;9021;50.882;4.326;2023-06-22T03:49:33;21.80;99.90
17795;DHT22;9021;50.882;4.326;2023-06-22T03:52:00;21.80;99.90
17795;DHT22;9021;50.882;4.326;2023-06-22T03:54:26;21.80;99.90
17795;DHT22;9021;50.882;4.326;2023-06-22T03:56:51;21.80;99.90
17795;DHT22;9021;50.882;4.326;2023-06-22T03:59:17;21.90;99.90
17795;DHT22;9021;50.882;4.326;2023-06-22T04:01:43;21.90;99.90
17795;DHT22;9021;50.882;4.326;2023-06-22T04:04:08;21.70;99.90
17795;DHT22;9021;50.882;4.326;2023-06-22T04:06:34;21.70;99.90
17795;DHT22;9021;50.882;4.326;2023-06-22T04:08:59;21.80;99.90
17795;DHT22;9021;50.882;4.326;2023-06-22T04:11:26;21.90;99.90
17795;DHT22;9021;50.882;4.326;2023-06-22T04:13:51;21.90;99.90
17795;DHT22;9021;50.882;4.326;2023-06-22T04:16:17;22.00;99.90
17795;DHT22;9021;50.882;4.326;2023-06-22T04:18:42;22.00;99.90
17795;DHT22;9021;50.882;4.326;2023-06-22T04:21:08;22.10;99.90
17795;DHT22;9021;50.882;4.326;2023-06-22T04:23:33;22.20;99.90
17795;DHT22;9021;50.882;4.326;2023-06-22T04:25:59;22.20;99.90
17795;DHT22;9021;50.882;4.326;2023-06-22T04:28:24;22.20;99.90
17795;DHT22;9021;50.882;4.326;2023-06-22T04:30:50;22.10;99.90
17795;DHT22;9021;50.882;4.326;2023-06-22T04:33:17;22.10;99.90
17795;DHT22;9021;50.882;4.326;2023-06-22T04:35:46;22.20;99.90
17795;DHT22;9021;50.882;4.326;2023-06-22T04:38:11;22.10;99.90
17795;DHT22;9021;50.882;4.326;2023-06-22T04:40:38;22.20;99.90
17795;DHT22;9021;50.882;4.326;2023-06-22T04:43:04;22.10;99.90
17795;DHT22;9021;50.882;4.326;2023-06-22T04:45:31;21.90;99.90
17795;DHT22;9021;50.882;4.326;2023-06-22T04:47:57;21.40;99.90
17795;DHT22;9021;50.882;4.326;2023-06-22T04:50:22;22.00;99.90
17795;DHT22;9021;50.882;4.326;2023-06-22T04:52:49;22.20;99.90
17795;DHT22;9021;50.882;4.326;2023-06-22T04:55:14;22.30;99.90
17795;DHT22;9021;50.882;4.326;2023-06-22T04:57:46;22.40;99.90
17795;DHT22;9021;50.882;4.326;2023-06-22T05:00:18;22.40;99.90
17795;DHT22;9021;50.882;4.326;2023-06-22T05:02:45;22.50;99.90
17795;DHT22;9021;50.882;4.326;2023-06-22T05:05:10;22.60;99.90
17795;DHT22;9021;50.882;4.326;2023-06-22T05:07:39;22.50;99.90
17795;DHT22;9021;50.882;4.326;2023-06-22T05:10:08;22.50;99.90
17795;DHT22;9021;50.882;4.326;2023-06-22T05:12:33;22.50;99.90
17795;DHT22;9021;50.882;4.326;2023-06-22T05:15:00;22.60;99.90
17795;DHT22;9021;50.882;4.326;2023-06-22T05:17:26;22.50;99.90
17795;DHT22;9021;50.882;4.326;2023-06-22T05:19:52;22.50;99.90
17795;DHT22;9021;50.882;4.326;2023-06-22T05:22:17;22.50;99.90
17795;DHT22;9021;50.882;4.326;2023-06-22T05:24:43;22.50;99.90
17795;DHT22;9021;50.882;4.326;2023-06-22T05:27:09;22.50;99.90
17795;DHT22;9021;50.882;4.326;2023-06-22T05:29:35;22.60;99.90
17795;DHT22;9021;50.882;4.326;2023-06-22T05:32:00;22.60;99.90
17795;DHT22;9021;50.882;4.326;2023-06-22T05:34:26;22.50;99.90
17795;DHT22;9021;50.882;4.326;2023-06-22T05:36:51;22.40;99.90
17795;DHT22;9021;50.882;4.326;2023-06-22T05:39:17;22.40;99.90
17795;DHT22;9021;50.882;4.326;2023-06-22T05:41:43;22.60;99.90
17795;DHT22;9021;50.882;4.326;2023-06-22T05:44:08;22.50;99.90
17795;DHT22;9021;50.882;4.326;2023-06-22T05:46:34;22.40;99.90
17795;DHT22;9021;50.882;4.326;2023-06-22T05:48:59;22.40;99.90
17795;DHT22;9021;50.882;4.326;2023-06-22T05:51:25;22.30;99.90
17795;DHT22;9021;50.882;4.326;2023-06-22T05:53:50;22.20;99.90
17795;DHT22;9021;50.882;4.326;2023-06-22T05:56:16;22.30;99.90
17795;DHT22;9021;50.882;4.326;2023-06-22T05:58:42;22.30;99.90
17795;DHT22;9021;50.882;4.326;2023-06-22T06:01:07;22.40;99.90
17795;DHT22;9021;50.882;4.326;2023-06-22T06:03:32;22.50;99.90
17795;DHT22;9021;50.882;4.326;2023-06-22T06:05:58;22.50;99.90
17795;DHT22;9021;50.882;4.326;2023-06-22T06:08:25;22.60;99.90
17795;DHT22;9021;50.882;4.326;2023-06-22T06:10:50;22.60;99.90
17795;DHT22;9021;50.882;4.326;2023-06-22T06:13:18;22.60;99.90
17795;DHT22;9021;50.882;4.326;2023-06-22T06:15:43;22.50;99.90
17795;DHT22;9021;50.882;4.326;2023-06-22T06:18:09;22.30;99.90
17795;DHT22;9021;50.882;4.326;2023-06-22T06:20:34;22.30;99.90
17795;DHT22;9021;50.882;4.326;2023-06-22T06:23:00;22.30;99.90
17795;DHT22;9021;50.882;4.326;2023-06-22T06:25:27;22.30;99.90
17795;DHT22;9021;50.882;4.326;2023-06-22T06:27:53;22.40;99.90
17795;DHT22;9021;50.882;4.326;2023-06-22T06:30:19;22.40;99.90
17795;DHT22;9021;50.882;4.326;2023-06-22T06:32:46;22.40;99.90
17795;DHT22;9021;50.882;4.326;2023-06-22T06:35:12;22.50;99.90
17795;DHT22;9021;50.882;4.326;2023-06-22T06:37:39;22.60;99.90
17795;DHT22;9021;50.882;4.326;2023-06-22T06:40:08;22.70;99.90
17795;DHT22;9021;50.882;4.326;2023-06-22T06:42:42;22.80;99.90
17795;DHT22;9021;50.882;4.326;2023-06-22T06:45:15;22.80;99.90
17795;DHT22;9021;50.882;4.326;2023-06-22T06:47:41;22.90;99.90
17795;DHT22;9021;50.882;4.326;2023-06-22T06:50:07;23.00;99.90
17795;DHT22;9021;50.882;4.326;2023-06-22T06:52:32;23.10;99.90
17795;DHT22;9021;50.882;4.326;2023-06-22T06:54:58;23.20;99.90
17795;DHT22;9021;50.882;4.326;2023-06-22T06:57:24;23.30;99.90
17795;DHT22;9021;50.882;4.326;2023-06-22T06:59:56;23.30;99.90
17795;DHT22;9021;50.882;4.326;2023-06-22T07:02:25;23.30;99.90
17795;DHT22;9021;50.882;4.326;2023-06-22T07:04:53;23.10;99.90
17795;DHT22;9021;50.882;4.326;2023-06-22T07:07:20;23.30;99.90
17795;DHT22;9021;50.882;4.326;2023-06-22T07:09:45;23.60;99.90
17795;DHT22;9021;50.882;4.326;2023-06-22T07:12:11;23.70;99.90
17795;DHT22;9021;50.882;4.326;2023-06-22T07:14:36;23.80;99.90
17795;DHT22;9021;50.882;4.326;2023-06-22T07:17:02;23.70;99.90
17795;DHT22;9021;50.882;4.326;2023-06-22T07:19:28;23.70;99.90
17795;DHT22;9021;50.882;4.326;2023-06-22T07:21:54;23.80;99.90
17795;DHT22;9021;50.882;4.326;2023-06-22T07:24:20;24.00;99.90
17795;DHT22;9021;50.882;4.326;2023-06-22T07:26:46;23.90;99.90
17795;DHT22;9021;50.882;4.326;2023-06-22T07:29:13;22.00;99.90
17795;DHT22;9021;50.882;4.326;2023-06-22T07:31:39;24.00;99.90
17795;DHT22;9021;50.882;4.326;2023-06-22T07:34:06;24.20;99.90
17795;DHT22;9021;50.882;4.326;2023-06-22T07:36:31;24.20;99.90
17795;DHT22;9021;50.882;4.326;2023-06-22T07:38:57;24.30;99.90
17795;DHT22;9021;50.882;4.326;2023-06-22T07:41:22;24.30;99.90
17795;DHT22;9021;50.882;4.326;2023-06-22T07:43:48;24.00;99.90
17795;DHT22;9021;50.882;4.326;2023-06-22T07:46:13;24.00;99.90
17795;DHT22;9021;50.882;4.326;2023-06-22T07:48:39;24.10;99.90
17795;DHT22;9021;50.882;4.326;2023-06-22T07:51:07;23.90;99.90
17795;DHT22;9021;50.882;4.326;2023-06-22T07:53:32;24.00;99.90
17795;DHT22;9021;50.882;4.326;2023-06-22T07:55:58;24.00;99.90
17795;DHT22;9021;50.882;4.326;2023-06-22T07:58:23;24.00;99.90
17795;DHT22;9021;50.882;4.326;2023-06-22T08:00:49;24.20;99.90
17795;DHT22;9021;50.882;4.326;2023-06-22T08:03:14;24.40;99.90
17795;DHT22;9021;50.882;4.326;2023-06-22T08:05:40;24.20;99.90
17795;DHT22;9021;50.882;4.326;2023-06-22T08:08:05;23.90;99.90
17795;DHT22;9021;50.882;4.326;2023-06-22T08:10:31;24.10;99.90
17795;DHT22;9021;50.882;4.326;2023-06-22T08:12:56;24.20;99.90
17795;DHT22;9021;50.882;4.326;2023-06-22T08:15:22;24.10;99.90
17795;DHT22;9021;50.882;4.326;2023-06-22T08:17:47;23.80;99.90
17795;DHT22;9021;50.882;4.326;2023-06-22T08:20:13;23.80;99.90
17795;DHT22;9021;50.882;4.326;2023-06-22T08:22:41;23.90;99.90
17795;DHT22;9021;50.882;4.326;2023-06-22T08:25:07;23.90;99.90
17795;DHT22;9021;50.882;4.326;2023-06-22T08:27:33;24.00;99.90
17795;DHT22;9021;50.882;4.326;2023-06-22T08:29:59;23.90;99.90
17795;DHT22;9021;50.882;4.326;2023-06-22T08:32:25;23.80;99.90
17795;DHT22;9021;50.882;4.326;2023-06-22T08:34:52;23.70;99.90
17795;DHT22;9021;50.882;4.326;2023-06-22T08:37:18;23.70;99.90
17795;DHT22;9021;50.882;4.326;2023-06-22T08:39:44;23.80;99.90
17795;DHT22;9021;50.882;4.326;2023-06-22T08:42:09;23.80;99.90
17795;DHT22;9021;50.882;4.326;2023-06-22T08:44:35;23.80;99.90
17795;DHT22;9021;50.882;4.326;2023-06-22T08:47:00;23.90;99.90
17795;DHT22;9021;50.882;4.326;2023-06-22T08:49:26;23.80;99.90
17795;DHT22;9021;50.882;4.326;2023-06-22T08:51:51;23.80;99.90
17795;DHT22;9021;50.882;4.326;2023-06-22T08:54:19;23.80;99.90
17795;DHT22;9021;50.882;4.326;2023-06-22T08:56:44;23.70;99.90
17795;DHT22;9021;50.882;4.326;2023-06-22T08:59:10;23.70;99.90
17795;DHT22;9021;50.882;4.326;2023-06-22T09:01:36;23.70;99.90
17795;DHT22;9021;50.882;4.326;2023-06-22T09:04:01;23.70;99.90
17795;DHT22;9021;50.882;4.326;2023-06-22T09:06:27;23.70;99.90
17795;DHT22;9021;50.882;4.326;2023-06-22T09:08:52;23.60;99.90
17795;DHT22;9021;50.882;4.326;2023-06-22T09:11:18;23.50;99.90
17795;DHT22;9021;50.882;4.326;2023-06-22T09:13:43;23.50;99.90
17795;DHT22;9021;50.882;4.326;2023-06-22T09:16:09;23.50;99.90
17795;DHT22;9021;50.882;4.326;2023-06-22T09:18:35;23.50;99.90
17795;DHT22;9021;50.882;4.326;2023-06-22T09:21:01;23.50;99.90
17795;DHT22;9021;50.882;4.326;2023-06-22T09:23:27;23.50;99.90
17795;DHT22;9021;50.882;4.326;2023-06-22T09:25:52;23.30;99.90
17795;DHT22;9021;50.882;4.326;2023-06-22T09:28:18;23.30;99.90
17795;DHT22;9021;50.882;4.326;2023-06-22T09:30:43;23.30;99.90
17795;DHT22;9021;50.882;4.326;2023-06-22T09:33:10;23.30;99.90
17795;DHT22;9021;50.882;4.326;2023-06-22T09:35:35;23.30;99.90
17795;DHT22;9021;50.882;4.326;2023-06-22T09:38:01;23.30;99.90
17795;DHT22;9021;50.882;4.326;2023-06-22T09:40:26;23.30;99.90
17795;DHT22;9021;50.882;4.326;2023-06-22T09:42:51;23.20;99.90
17795;DHT22;9021;50.882;4.326;2023-06-22T09:45:17;23.20;99.90
17795;DHT22;9021;50.882;4.326;2023-06-22T09:47:42;23.10;99.90
17795;DHT22;9021;50.882;4.326;2023-06-22T09:50:08;22.90;99.90
17795;DHT22;9021;50.882;4.326;2023-06-22T09:52:34;22.70;99.90
17795;DHT22;9021;50.882;4.326;2023-06-22T09:55:01;22.40;99.90
17795;DHT22;9021;50.882;4.326;2023-06-22T09:57:29;22.30;99.90
17795;DHT22;9021;50.882;4.326;2023-06-22T09:59:54;22.20;99.90
17795;DHT22;9021;50.882;4.326;2023-06-22T10:02:20;21.80;99.90
17795;DHT22;9021;50.882;4.326;2023-06-22T10:04:45;21.70;99.90
17795;DHT22;9021;50.882;4.326;2023-06-22T10:07:11;21.40;99.90
17795;DHT22;9021;50.882;4.326;2023-06-22T10:09:36;21.40;99.90
17795;DHT22;9021;50.882;4.326;2023-06-22T10:12:02;21.40;99.90
17795;DHT22;9021;50.882;4.326;2023-06-22T10:14:27;25.10;99.90
17795;DHT22;9021;50.882;4.326;2023-06-22T10:16:54;21.10;99.90
17795;DHT22;9021;50.882;4.326;2023-06-22T10:19:20;20.90;99.90
17795;DHT22;9021;50.882;4.326;2023-06-22T10:21:45;20.90;99.90
17795;DHT22;9021;50.882;4.326;2023-06-22T10:24:11;20.80;99.90
17795;DHT22;9021;50.882;4.326;2023-06-22T10:26:37;20.80;99.90
17795;DHT22;9021;50.882;4.326;2023-06-22T10:29:02;21.00;99.90
17795;DHT22;9021;50.882;4.326;2023-06-22T10:31:28;21.10;99.90
17795;DHT22;9021;50.882;4.326;2023-06-22T10:33:54;21.00;99.90
17795;DHT22;9021;50.882;4.326;2023-06-22T10:36:20;20.90;99.90
17795;DHT22;9021;50.882;4.326;2023-06-22T10:38:46;20.70;99.90
17795;DHT22;9021;50.882;4.326;2023-06-22T10:41:12;20.50;99.90
17795;DHT22;9021;50.882;4.326;2023-06-22T10:43:38;20.80;99.90
17795;DHT22;9021;50.882;4.326;2023-06-22T10:46:03;20.90;99.90
17795;DHT22;9021;50.882;4.326;2023-06-22T10:48:29;21.00;99.90
17795;DHT22;9021;50.882;4.326;2023-06-22T10:50:54;21.10;99.90
17795;DHT22;9021;50.882;4.326;2023-06-22T10:53:20;21.10;99.90
17795;DHT22;9021;50.882;4.326;2023-06-22T10:55:46;21.20;99.90
17795;DHT22;9021;50.882;4.326;2023-06-22T10:58:11;21.20;99.90
17795;DHT22;9021;50.882;4.326;2023-06-22T11:00:37;21.30;99.90
17795;DHT22;9021;50.882;4.326;2023-06-22T11:03:02;21.30;99.90
17795;DHT22;9021;50.882;4.326;2023-06-22T11:05:28;21.30;99.90
17795;DHT22;9021;50.882;4.326;2023-06-22T11:07:53;21.30;99.90
17795;DHT22;9021;50.882;4.326;2023-06-22T11:10:19;21.30;99.90
17795;DHT22;9021;50.882;4.326;2023-06-22T11:12:44;21.20;99.90
17795;DHT22;9021;50.882;4.326;2023-06-22T11:15:10;21.30;99.90
17795;DHT22;9021;50.882;4.326;2023-06-22T11:17:35;21.20;99.90
17795;DHT22;9021;50.882;4.326;2023-06-22T11:20:01;21.10;99.90
17795;DHT22;9021;50.882;4.326;2023-06-22T11:22:29;21.10;99.90
17795;DHT22;9021;50.882;4.326;2023-06-22T11:24:58;21.10;99.90
17795;DHT22;9021;50.882;4.326;2023-06-22T11:27:24;21.10;99.90
17795;DHT22;9021;50.882;4.326;2023-06-22T11:29:49;21.20;99.90
17795;DHT22;9021;50.882;4.326;2023-06-22T11:32:15;21.30;99.90
17795;DHT22;9021;50.882;4.326;2023-06-22T11:34:40;21.30;99.90
17795;DHT22;9021;50.882;4.326;2023-06-22T11:37:06;21.30;99.90
17795;DHT22;9021;50.882;4.326;2023-06-22T11:39:31;21.20;99.90
17795;DHT22;9021;50.882;4.326;2023-06-22T11:41:57;21.20;99.90
17795;DHT22;9021;50.882;4.326;2023-06-22T11:44:22;21.10;99.90
17795;DHT22;9021;50.882;4.326;2023-06-22T11:46:48;21.20;99.90
17795;DHT22;9021;50.882;4.326;2023-06-22T11:49:13;21.20;99.90
17795;DHT22;9021;50.882;4.326;2023-06-22T11:51:39;21.30;99.90
17795;DHT22;9021;50.882;4.326;2023-06-22T11:54:04;21.20;99.90
17795;DHT22;9021;50.882;4.326;2023-06-22T11:56:30;21.20;99.90
17795;DHT22;9021;50.882;4.326;2023-06-22T11:58:55;21.20;99.90
17795;DHT22;9021;50.882;4.326;2023-06-22T12:01:21;21.30;99.90
17795;DHT22;9021;50.882;4.326;2023-06-22T12:03:47;21.20;99.90
17795;DHT22;9021;50.882;4.326;2023-06-22T12:06:13;21.30;99.90
17795;DHT22;9021;50.882;4.326;2023-06-22T12:08:38;21.30;99.90
17795;DHT22;9021;50.882;4.326;2023-06-22T12:11:04;21.20;99.90
17795;DHT22;9021;50.882;4.326;2023-06-22T12:13:29;21.20;99.90
17795;DHT22;9021;50.882;4.326;2023-06-22T12:15:55;21.20;99.90
17795;DHT22;9021;50.882;4.326;2023-06-22T12:18:20;21.30;99.90
17795;DHT22;9021;50.882;4.326;2023-06-22T12:20:46;21.30;99.90
17795;DHT22;9021;50.882;4.326;2023-06-22T12:23:12;21.20;99.90
17795;DHT22;9021;50.882;4.326;2023-06-22T12:25:39;21.20;99.90
17795;DHT22;9021;50.882;4.326;2023-06-22T12:28:04;21.20;99.90
17795;DHT22;9021;50.882;4.326;2023-06-22T12:30:30;21.20;99.90
17795;DHT22;9021;50.882;4.326;2023-06-22T12:32:55;21.20;99.90
17795;DHT22;9021;50.882;4.326;2023-06-22T12:35:21;21.20;99.90
17795;DHT22;9021;50.882;4.326;2023-06-22T12:37:46;21.30;99.90
17795;DHT22;9021;50.882;4.326;2023-06-22T12:40:12;21.30;99.90
17795;DHT22;9021;50.882;4.326;2023-06-22T12:42:37;21.40;99.90
17795;DHT22;9021;50.882;4.326;2023-06-22T12:45:03;21.30;99.90
17795;DHT22;9021;50.882;4.326;2023-06-22T12:47:29;21.30;99.90
17795;DHT22;9021;50.882;4.326;2023-06-22T12:49:54;21.30;99.90
17795;DHT22;9021;50.882;4.326;2023-06-22T12:52:20;21.30;99.90
17795;DHT22;9021;50.882;4.326;2023-06-22T12:54:45;21.30;99.90
17795;DHT22;9021;50.882;4.326;2023-06-22T12:57:10;21.20;99.90
17795;DHT22;9021;50.882;4.326;2023-06-22T12:59:36;21.20;99.90
17795;DHT22;9021;50.882;4.326;2023-06-22T13:02:01;21.20;99.90
17795;DHT22;9021;50.882;4.326;2023-06-22T13:04:27;21.20;99.90
17795;DHT22;9021;50.882;4.326;2023-06-22T13:06:52;23.00;99.90
17795;DHT22;9021;50.882;4.326;2023-06-22T13:09:18;21.20;99.90
17795;DHT22;9021;50.882;4.326;2023-06-22T13:11:44;18.60;99.90
17795;DHT22;9021;50.882;4.326;2023-06-22T13:14:09;21.10;99.90
17795;DHT22;9021;50.882;4.326;2023-06-22T13:16:35;21.10;99.90
17795;DHT22;9021;50.882;4.326;2023-06-22T13:19:00;21.10;99.90
17795;DHT22;9021;50.882;4.326;2023-06-22T13:21:26;21.10;99.90
17795;DHT22;9021;50.882;4.326;2023-06-22T13:23:51;21.10;99.90
17795;DHT22;9021;50.882;4.326;2023-06-22T13:26:17;21.10;99.90
17795;DHT22;9021;50.882;4.326;2023-06-22T13:28:42;21.00;99.90
17795;DHT22;9021;50.882;4.326;2023-06-22T13:31:08;21.00;99.90
17795;DHT22;9021;50.882;4.326;2023-06-22T13:33:33;20.90;99.90
17795;DHT22;9021;50.882;4.326;2023-06-22T13:35:59;21.00;99.90
17795;DHT22;9021;50.882;4.326;2023-06-22T13:38:24;21.00;99.90
17795;DHT22;9021;50.882;4.326;2023-06-22T13:40:50;21.00;99.90
17795;DHT22;9021;50.882;4.326;2023-06-22T13:43:16;20.90;99.90
17795;DHT22;9021;50.882;4.326;2023-06-22T13:45:42;20.90;99.90
17795;DHT22;9021;50.882;4.326;2023-06-22T13:48:08;20.90;99.90
17795;DHT22;9021;50.882;4.326;2023-06-22T13:50:33;20.90;99.90
17795;DHT22;9021;50.882;4.326;2023-06-22T13:52:59;20.90;99.90
17795;DHT22;9021;50.882;4.326;2023-06-22T13:55:24;20.90;99.90
17795;DHT22;9021;50.882;4.326;2023-06-22T13:57:51;21.00;99.90
17795;DHT22;9021;50.882;4.326;2023-06-22T14:00:17;21.00;99.90
17795;DHT22;9021;50.882;4.326;2023-06-22T14:02:43;21.00;99.90
17795;DHT22;9021;50.882;4.326;2023-06-22T14:05:08;20.90;99.90
17795;DHT22;9021;50.882;4.326;2023-06-22T14:07:34;20.80;99.90
17795;DHT22;9021;50.882;4.326;2023-06-22T14:10:00;20.80;99.90
17795;DHT22;9021;50.882;4.326;2023-06-22T14:12:25;20.70;99.90
17795;DHT22;9021;50.882;4.326;2023-06-22T14:14:51;20.70;99.90
17795;DHT22;9021;50.882;4.326;2023-06-22T14:17:17;20.60;99.90
17795;DHT22;9021;50.882;4.326;2023-06-22T14:19:43;20.60;99.90
17795;DHT22;9021;50.882;4.326;2023-06-22T14:22:08;20.60;99.90
17795;DHT22;9021;50.882;4.326;2023-06-22T14:24:34;20.70;99.90
17795;DHT22;9021;50.882;4.326;2023-06-22T14:26:59;20.70;99.90
17795;DHT22;9021;50.882;4.326;2023-06-22T14:29:27;20.70;99.90
17795;DHT22;9021;50.882;4.326;2023-06-22T14:31:53;20.70;99.90
17795;DHT22;9021;50.882;4.326;2023-06-22T14:34:18;20.70;99.90
17795;DHT22;9021;50.882;4.326;2023-06-22T14:36:44;20.70;99.90
17795;DHT22;9021;50.882;4.326;2023-06-22T14:39:09;20.70;99.90
17795;DHT22;9021;50.882;4.326;2023-06-22T14:41:35;20.80;99.90
17795;DHT22;9021;50.882;4.326;2023-06-22T14:44:00;20.70;99.90
17795;DHT22;9021;50.882;4.326;2023-06-22T14:46:26;20.70;99.90
17795;DHT22;9021;50.882;4.326;2023-06-22T14:48:52;20.80;99.90
17795;DHT22;9021;50.882;4.326;2023-06-22T14:51:17;21.30;99.90
17795;DHT22;9021;50.882;4.326;2023-06-22T14:53:43;20.90;99.90
17795;DHT22;9021;50.882;4.326;2023-06-22T14:56:09;20.90;99.90
17795;DHT22;9021;50.882;4.326;2023-06-22T14:58:35;20.90;99.90
17795;DHT22;9021;50.882;4.326;2023-06-22T15:01:03;20.90;99.90
17795;DHT22;9021;50.882;4.326;2023-06-22T15:03:29;21.00;99.90
17795;DHT22;9021;50.882;4.326;2023-06-22T15:05:57;21.00;99.90
17795;DHT22;9021;50.882;4.326;2023-06-22T15:08:23;20.90;99.90
17795;DHT22;9021;50.882;4.326;2023-06-22T15:10:48;20.80;99.90
17795;DHT22;9021;50.882;4.326;2023-06-22T15:13:14;20.80;99.90
17795;DHT22;9021;50.882;4.326;2023-06-22T15:15:40;20.80;99.90
17795;DHT22;9021;50.882;4.326;2023-06-22T15:18:05;20.90;99.90
17795;DHT22;9021;50.882;4.326;2023-06-22T15:20:31;20.90;99.90
17795;DHT22;9021;50.882;4.326;2023-06-22T15:22:57;21.00;99.90
17795;DHT22;9021;50.882;4.326;2023-06-22T15:25:22;21.00;99.90
17795;DHT22;9021;50.882;4.326;2023-06-22T15:27:48;21.10;99.90
17795;DHT22;9021;50.882;4.326;2023-06-22T15:30:13;21.10;99.90
17795;DHT22;9021;50.882;4.326;2023-06-22T15:32:42;21.10;99.90
17795;DHT22;9021;50.882;4.326;2023-06-22T15:35:08;21.10;99.90
17795;DHT22;9021;50.882;4.326;2023-06-22T15:37:33;21.10;99.90
17795;DHT22;9021;50.882;4.326;2023-06-22T15:39:59;21.20;99.90
17795;DHT22;9021;50.882;4.326;2023-06-22T15:42:24;21.20;99.90
17795;DHT22;9021;50.882;4.326;2023-06-22T15:44:50;21.10;99.90